createdAt,value
2019-01-25T00:00:59.990Z,5.25
2019-01-25T00:02:03.280Z,5.33
2019-01-25T00:03:10.215Z,5.26
2019-01-25T00:04:22.231Z,5.18
2019-01-25T00:05:43.309Z,5.16
2019-01-25T00:07:01.088Z,5.29
2019-01-25T00:09:42.854Z,5.18
2019-01-25T00:10:55.473Z,5.13
2019-01-25T00:12:09.374Z,5.05
2019-01-25T00:13:20.873Z,5.00
2019-01-25T00:14:32.754Z,4.96
2019-01-25T00:17:30.157Z,4.99
2019-01-25T00:18:32.168Z,5.09
2019-01-25T00:19:37.036Z,5.19
2019-01-25T00:20:40.323Z,5.18
2019-01-25T00:21:43.608Z,5.18
2019-01-25T00:22:46.890Z,5.15
2019-01-25T00:23:50.269Z,5.17
2019-01-25T00:24:54.005Z,5.18
2019-01-25T00:25:57.257Z,5.21
2019-01-25T00:27:00.541Z,5.19
2019-01-25T00:28:03.820Z,5.11
2019-01-25T00:29:07.148Z,5.04
2019-01-25T00:30:15.507Z,4.99
2019-01-25T00:31:18.798Z,5.00
2019-01-25T00:32:22.085Z,4.91
2019-01-25T00:33:25.374Z,4.82
2019-01-25T00:34:28.691Z,4.73
2019-01-25T00:35:31.973Z,4.79
2019-01-25T00:36:35.256Z,4.88
2019-01-25T00:37:38.604Z,4.99
2019-01-25T00:38:41.963Z,5.12
2019-01-25T00:39:45.278Z,5.22
2019-01-25T00:40:48.851Z,5.26
2019-01-25T00:41:52.486Z,5.18
2019-01-25T00:42:55.774Z,5.11
2019-01-25T00:43:59.063Z,5.12
2019-01-25T00:45:02.457Z,5.07
2019-01-25T00:46:05.744Z,4.96
2019-01-25T00:47:09.037Z,4.88
2019-01-25T00:48:12.392Z,4.93
2019-01-25T00:49:15.682Z,4.93
2019-01-25T00:50:20.648Z,4.87
2019-01-25T00:51:23.952Z,4.80
2019-01-25T00:52:27.309Z,4.79
2019-01-25T00:53:30.602Z,4.66
2019-01-25T00:54:33.884Z,4.66
2019-01-25T00:55:37.623Z,4.72
2019-01-25T00:56:40.908Z,4.79
2019-01-25T00:57:44.204Z,4.84
2019-01-25T00:58:47.487Z,4.88
2019-01-25T00:59:50.784Z,4.86
2019-01-25T01:00:54.100Z,4.82
2019-01-25T01:01:57.396Z,4.77
2019-01-25T01:03:00.691Z,4.78
2019-01-25T01:04:04.048Z,4.76
2019-01-25T01:05:07.428Z,4.70
2019-01-25T01:06:10.821Z,4.63
2019-01-25T01:07:14.171Z,4.68
2019-01-25T01:08:17.538Z,4.73
2019-01-25T01:09:20.830Z,4.75
2019-01-25T01:10:24.128Z,4.69
2019-01-25T01:11:27.536Z,4.67
2019-01-25T01:12:30.820Z,4.70
2019-01-25T01:13:34.117Z,4.68
2019-01-25T01:14:37.395Z,4.67
2019-01-25T01:15:40.682Z,4.72
2019-01-25T01:16:44.014Z,4.76
2019-01-25T01:17:47.317Z,4.77
2019-01-25T01:18:50.604Z,4.78
2019-01-25T01:19:53.876Z,4.83
2019-01-25T01:20:57.168Z,4.75
2019-01-25T01:22:00.579Z,4.69
2019-01-25T01:23:03.878Z,4.65
2019-01-25T01:24:07.171Z,4.59
2019-01-25T01:25:11.274Z,4.60
2019-01-25T01:26:14.575Z,4.62
2019-01-25T01:27:17.880Z,4.64
2019-01-25T01:28:21.572Z,4.61
2019-01-25T01:29:24.848Z,4.60
2019-01-25T01:30:28.144Z,4.54
2019-01-25T01:31:31.437Z,4.53
2019-01-25T01:32:35.077Z,4.53
2019-01-25T01:33:38.361Z,4.53
2019-01-25T01:34:41.662Z,4.53
2019-01-25T01:35:44.936Z,4.64
2019-01-25T01:36:48.212Z,4.70
2019-01-25T01:37:52.684Z,4.78
2019-01-25T01:38:55.970Z,4.81
2019-01-25T01:39:59.338Z,4.79
2019-01-25T01:41:02.629Z,4.81
2019-01-25T01:42:05.913Z,4.86
2019-01-25T01:43:09.328Z,4.83
2019-01-25T01:44:12.612Z,4.81
2019-01-25T01:45:15.984Z,4.70
2019-01-25T01:46:19.343Z,4.63
2019-01-25T01:47:22.638Z,4.61
2019-01-25T01:48:25.956Z,4.55
2019-01-25T01:49:29.254Z,4.53
2019-01-25T01:50:32.532Z,4.59
2019-01-25T01:51:35.816Z,4.56
2019-01-25T01:52:39.109Z,4.61
2019-01-25T01:53:42.434Z,4.69
2019-01-25T01:54:45.728Z,4.76
2019-01-25T01:55:49.017Z,4.86
2019-01-25T01:56:52.302Z,4.96
2019-01-25T01:57:55.593Z,4.95
2019-01-25T01:58:58.905Z,4.96
2019-01-25T02:00:02.200Z,4.94
2019-01-25T02:01:05.479Z,4.93
2019-01-25T02:02:09.095Z,4.81
2019-01-25T02:03:12.392Z,4.77
2019-01-25T02:04:15.727Z,4.73
2019-01-25T02:05:19.003Z,4.62
2019-01-25T02:06:22.291Z,4.59
2019-01-25T02:07:25.923Z,4.62
2019-01-25T02:08:29.209Z,4.59
2019-01-25T02:09:32.540Z,4.52
2019-01-25T02:10:35.988Z,4.44
2019-01-25T02:11:39.272Z,4.51
2019-01-25T02:12:42.556Z,4.73
2019-01-25T02:13:45.907Z,4.71
2019-01-25T02:14:49.221Z,4.75
2019-01-25T02:15:52.508Z,4.80
2019-01-25T02:16:55.800Z,4.76
2019-01-25T02:17:59.445Z,4.61
2019-01-25T02:19:02.734Z,4.53
2019-01-25T02:20:09.321Z,4.52
2019-01-25T02:21:13.381Z,4.51
2019-01-25T02:22:16.670Z,4.46
2019-01-25T02:23:19.962Z,4.31
2019-01-25T02:24:23.583Z,4.28
2019-01-25T02:25:27.379Z,4.26
2019-01-25T02:26:30.775Z,4.24
2019-01-25T02:27:34.068Z,4.24
2019-01-25T02:28:37.356Z,4.21
2019-01-25T02:29:40.640Z,4.23
2019-01-25T02:30:44.037Z,4.30
2019-01-25T02:31:47.432Z,4.38
2019-01-25T02:32:50.781Z,4.47
2019-01-25T02:33:54.076Z,4.48
2019-01-25T02:34:57.359Z,4.46
2019-01-25T02:36:00.692Z,4.38
2019-01-25T02:37:03.985Z,4.32
2019-01-25T02:38:07.271Z,4.27
2019-01-25T02:39:10.567Z,4.25
2019-01-25T02:40:22.501Z,4.17
2019-01-25T02:41:25.805Z,4.14
2019-01-25T02:42:29.097Z,4.07
2019-01-25T02:43:32.425Z,4.03
2019-01-25T02:44:35.708Z,3.98
2019-01-25T02:45:39.003Z,4.03
2019-01-25T02:46:42.317Z,4.09
2019-01-25T02:47:45.605Z,4.15
2019-01-25T02:48:48.894Z,4.21
2019-01-25T02:49:52.184Z,4.28
2019-01-25T02:50:55.467Z,4.26
2019-01-25T02:51:58.795Z,4.32
2019-01-25T02:53:03.838Z,4.38
2019-01-25T02:54:07.096Z,4.38
2019-01-25T02:55:11.733Z,4.40
2019-01-25T02:56:15.029Z,4.29
2019-01-25T02:57:18.342Z,4.27
2019-01-25T02:58:21.669Z,4.25
2019-01-25T02:59:24.988Z,4.14
2019-01-25T03:00:28.276Z,4.14
2019-01-25T03:01:31.556Z,4.17
2019-01-25T03:02:34.946Z,4.17
2019-01-25T03:03:38.247Z,4.18
2019-01-25T03:04:41.526Z,4.08
2019-01-25T03:05:44.816Z,4.04
2019-01-25T03:06:48.122Z,3.99
2019-01-25T03:07:51.625Z,4.10
2019-01-25T03:08:54.915Z,4.18
2019-01-25T03:09:58.207Z,4.26
2019-01-25T03:11:01.490Z,4.33
2019-01-25T03:12:05.068Z,4.32
2019-01-25T03:13:08.418Z,4.17
2019-01-25T03:14:11.698Z,4.01
2019-01-25T03:15:19.892Z,3.99
2019-01-25T03:16:23.245Z,3.99
2019-01-25T03:17:26.556Z,4.00
2019-01-25T03:18:29.913Z,3.99
2019-01-25T03:19:33.543Z,4.00
2019-01-25T03:20:36.833Z,4.00
2019-01-25T03:21:40.125Z,4.01
2019-01-25T03:22:43.455Z,3.92
2019-01-25T03:23:46.732Z,3.86
2019-01-25T03:24:50.024Z,3.84
2019-01-25T03:25:53.316Z,3.94
2019-01-25T03:26:56.607Z,3.95
2019-01-25T03:27:59.997Z,3.96
2019-01-25T03:29:03.344Z,4.01
2019-01-25T03:30:10.305Z,4.10
2019-01-25T03:31:13.574Z,4.13
2019-01-25T03:32:17.051Z,4.15
2019-01-25T03:33:20.349Z,4.11
2019-01-25T03:34:23.696Z,4.08
2019-01-25T03:35:27.060Z,4.14
2019-01-25T03:36:30.343Z,4.11
2019-01-25T03:37:33.625Z,4.12
2019-01-25T03:38:36.953Z,4.12
2019-01-25T03:39:40.311Z,4.07
2019-01-25T03:40:43.604Z,4.06
2019-01-25T03:41:46.892Z,4.02
2019-01-25T03:42:50.187Z,4.03
2019-01-25T03:43:53.500Z,4.05
2019-01-25T03:44:56.797Z,4.05
2019-01-25T03:46:00.587Z,4.14
2019-01-25T03:47:03.875Z,4.19
2019-01-25T03:48:08.243Z,4.24
2019-01-25T03:49:12.401Z,4.27
2019-01-25T03:50:27.323Z,4.24
2019-01-25T03:51:30.601Z,4.23
2019-01-25T03:52:33.894Z,4.29
2019-01-25T03:53:37.182Z,4.27
2019-01-25T03:54:40.496Z,4.27
2019-01-25T03:55:43.780Z,4.17
2019-01-25T03:56:47.988Z,4.16
2019-01-25T03:57:51.411Z,4.13
2019-01-25T03:58:54.707Z,4.09
2019-01-25T03:59:58.033Z,4.10
2019-01-25T04:01:01.321Z,4.15
2019-01-25T04:02:04.612Z,4.12
2019-01-25T04:03:07.895Z,4.13
2019-01-25T04:04:11.179Z,4.23
2019-01-25T04:05:15.759Z,4.32
2019-01-25T04:06:19.195Z,4.40
2019-01-25T04:07:22.844Z,4.47
2019-01-25T04:08:26.137Z,4.45
2019-01-25T04:09:29.428Z,4.46
2019-01-25T04:10:32.759Z,4.43
2019-01-25T04:11:36.059Z,4.44
2019-01-25T04:12:39.418Z,4.43
2019-01-25T04:13:43.021Z,4.36
2019-01-25T04:14:46.308Z,4.38
2019-01-25T04:15:49.637Z,4.58
2019-01-25T04:16:52.918Z,4.67
2019-01-25T04:17:56.210Z,4.62
2019-01-25T04:18:59.494Z,4.57
2019-01-25T04:20:02.790Z,4.48
2019-01-25T04:21:06.108Z,4.29
2019-01-25T04:22:09.437Z,4.30
2019-01-25T04:23:12.728Z,4.43
2019-01-25T04:24:16.369Z,4.47
2019-01-25T04:25:21.405Z,4.52
2019-01-25T04:26:24.734Z,4.54
2019-01-25T04:27:28.017Z,4.59
2019-01-25T04:28:31.300Z,4.46
2019-01-25T04:29:35.017Z,4.28
2019-01-25T04:30:38.265Z,4.17
2019-01-25T04:31:41.691Z,4.12
2019-01-25T04:32:45.034Z,4.02
2019-01-25T04:33:48.327Z,3.95
2019-01-25T04:34:51.642Z,4.01
2019-01-25T04:35:54.934Z,4.03
2019-01-25T04:36:58.268Z,4.04
2019-01-25T04:38:01.925Z,4.07
2019-01-25T04:39:07.862Z,4.13
2019-01-25T04:40:13.680Z,4.19
2019-01-25T04:41:16.975Z,4.25
2019-01-25T04:42:20.295Z,4.24
2019-01-25T04:43:23.589Z,4.27
2019-01-25T04:44:26.868Z,4.23
2019-01-25T04:45:30.154Z,4.19
2019-01-25T04:46:34.403Z,4.24
2019-01-25T04:47:37.727Z,4.20
2019-01-25T04:48:41.455Z,4.14
2019-01-25T04:49:44.737Z,4.13
2019-01-25T04:50:48.027Z,4.04
2019-01-25T04:51:51.315Z,3.99
2019-01-25T04:52:54.711Z,4.00
2019-01-25T04:53:58.015Z,3.96
2019-01-25T04:55:04.946Z,4.03
2019-01-25T04:56:08.296Z,4.03
2019-01-25T04:57:11.658Z,4.07
2019-01-25T04:58:15.556Z,4.07
2019-01-25T04:59:18.847Z,4.14
2019-01-25T05:00:23.842Z,4.21
2019-01-25T05:01:28.052Z,4.29
2019-01-25T05:02:31.337Z,4.36
2019-01-25T05:03:34.729Z,4.41
2019-01-25T05:04:38.016Z,4.42
2019-01-25T05:05:41.380Z,4.41
2019-01-25T05:06:44.739Z,4.37
2019-01-25T05:07:48.025Z,4.30
2019-01-25T05:08:51.722Z,4.14
2019-01-25T05:09:55.003Z,4.11
2019-01-25T05:10:58.295Z,4.11
2019-01-25T05:12:01.658Z,4.09
2019-01-25T05:13:05.084Z,4.08
2019-01-25T05:14:08.479Z,4.09
2019-01-25T05:15:11.840Z,4.03
2019-01-25T05:16:15.233Z,4.02
2019-01-25T05:17:18.512Z,4.02
2019-01-25T05:18:21.795Z,4.05
2019-01-25T05:19:25.109Z,4.14
2019-01-25T05:20:28.414Z,4.15
2019-01-25T05:21:31.697Z,4.17
2019-01-25T05:22:35.128Z,4.12
2019-01-25T05:23:38.434Z,4.08
2019-01-25T05:24:41.748Z,4.04
2019-01-25T05:25:45.451Z,4.05
2019-01-25T05:26:48.751Z,4.09
2019-01-25T05:27:52.513Z,4.25
2019-01-25T05:28:55.967Z,4.22
2019-01-25T05:29:59.717Z,4.15
2019-01-25T05:31:03.005Z,4.14
2019-01-25T05:32:06.298Z,4.18
2019-01-25T05:33:09.659Z,4.17
2019-01-25T05:34:12.942Z,4.08
2019-01-25T05:35:16.331Z,4.01
2019-01-25T05:36:19.618Z,3.95
2019-01-25T05:37:22.973Z,3.92
2019-01-25T05:38:26.733Z,3.79
2019-01-25T05:39:30.053Z,3.80
2019-01-25T05:40:33.371Z,3.77
2019-01-25T05:41:36.663Z,3.78
2019-01-25T05:42:39.987Z,3.75
2019-01-25T05:43:43.268Z,3.77
2019-01-25T05:44:46.566Z,3.76
2019-01-25T05:45:49.894Z,3.76
2019-01-25T05:46:53.251Z,3.74
2019-01-25T05:47:56.623Z,3.79
2019-01-25T05:49:00.078Z,3.82
2019-01-25T05:50:03.409Z,3.85
2019-01-25T05:51:07.133Z,3.89
2019-01-25T05:52:15.634Z,3.91
2019-01-25T05:53:19.124Z,3.95
2019-01-25T05:54:22.383Z,3.98
2019-01-25T05:55:25.687Z,4.03
2019-01-25T05:56:29.416Z,4.09
2019-01-25T05:57:32.709Z,4.14
2019-01-25T05:58:36.010Z,4.05
2019-01-25T05:59:39.361Z,3.95
2019-01-25T06:00:45.896Z,3.88
2019-01-25T06:01:49.236Z,3.91
2019-01-25T06:02:52.524Z,3.86
2019-01-25T06:03:56.153Z,3.80
2019-01-25T06:04:59.445Z,3.78
2019-01-25T06:06:02.803Z,3.82
2019-01-25T06:07:06.193Z,3.94
2019-01-25T06:08:30.760Z,3.95
2019-01-25T06:09:34.039Z,3.93
2019-01-25T06:10:37.344Z,3.94
2019-01-25T06:11:40.949Z,3.89
2019-01-25T06:12:44.663Z,3.86
2019-01-25T06:13:48.007Z,3.89
2019-01-25T06:14:51.357Z,3.86
2019-01-25T06:15:54.644Z,3.83
2019-01-25T06:16:57.928Z,3.88
2019-01-25T06:18:02.813Z,3.88
2019-01-25T06:19:06.120Z,3.86
2019-01-25T06:20:11.351Z,3.86
2019-01-25T06:21:14.652Z,3.84
2019-01-25T06:22:17.927Z,3.90
2019-01-25T06:23:21.319Z,3.90
2019-01-25T06:24:24.679Z,3.92
2019-01-25T06:25:27.970Z,4.03
2019-01-25T06:26:31.332Z,4.06
2019-01-25T06:27:37.123Z,4.02
2019-01-25T06:28:40.412Z,4.12
2019-01-25T06:29:43.699Z,4.17
2019-01-25T06:30:47.100Z,4.22
2019-01-25T06:31:50.400Z,4.22
2019-01-25T06:32:53.689Z,4.15
2019-01-25T06:33:57.008Z,4.15
2019-01-25T06:35:00.296Z,4.15
2019-01-25T06:36:03.762Z,4.18
2019-01-25T06:37:07.050Z,4.19
2019-01-25T06:38:10.337Z,4.20
2019-01-25T06:39:13.670Z,4.26
2019-01-25T06:40:17.005Z,4.31
2019-01-25T06:41:20.305Z,4.36
2019-01-25T06:42:23.601Z,4.40
2019-01-25T06:43:26.902Z,4.51
2019-01-25T06:44:30.363Z,4.58
2019-01-25T06:45:33.653Z,4.47
2019-01-25T06:46:36.944Z,4.41
2019-01-25T06:47:40.228Z,4.44
2019-01-25T06:48:43.598Z,4.44
2019-01-25T06:49:46.890Z,4.48
2019-01-25T06:50:50.193Z,4.47
2019-01-25T06:51:53.553Z,4.49
2019-01-25T06:52:57.345Z,4.51
2019-01-25T06:54:00.631Z,4.43
2019-01-25T06:55:04.829Z,4.48
2019-01-25T06:56:08.121Z,4.54
2019-01-25T06:57:13.068Z,4.50
2019-01-25T06:58:20.883Z,4.42
2019-01-25T06:59:24.173Z,4.42
2019-01-25T07:00:29.151Z,4.44
2019-01-25T07:01:39.946Z,4.52
2019-01-25T07:02:43.234Z,4.56
2019-01-25T07:03:46.525Z,4.65
2019-01-25T07:04:49.903Z,4.61
2019-01-25T07:05:53.378Z,4.59
2019-01-25T07:06:56.661Z,4.53
2019-01-25T07:07:59.973Z,4.55
2019-01-25T07:09:03.405Z,4.58
2019-01-25T07:10:09.960Z,4.62
2019-01-25T07:11:13.289Z,4.62
2019-01-25T07:12:16.580Z,4.60
2019-01-25T07:13:19.881Z,4.62
2019-01-25T07:14:23.172Z,4.62
2019-01-25T07:15:26.461Z,4.66
2019-01-25T07:16:29.809Z,4.64
2019-01-25T07:17:33.082Z,4.62
2019-01-25T07:18:36.376Z,4.57
2019-01-25T07:19:39.749Z,4.50
2019-01-25T07:20:43.134Z,4.52
2019-01-25T07:21:46.529Z,4.62
2019-01-25T07:22:50.219Z,4.62
2019-01-25T07:23:53.509Z,4.63
2019-01-25T07:24:57.245Z,4.63
2019-01-25T07:26:00.772Z,4.61
2019-01-25T07:27:04.488Z,4.66
2019-01-25T07:28:07.784Z,4.75
2019-01-25T07:29:11.105Z,4.91
2019-01-25T07:30:16.521Z,4.85
2019-01-25T07:31:19.809Z,4.81
2019-01-25T07:32:23.125Z,4.75
2019-01-25T07:33:26.542Z,4.85
2019-01-25T07:34:29.837Z,4.86
2019-01-25T07:35:33.116Z,4.83
2019-01-25T07:36:36.715Z,4.80
2019-01-25T07:37:40.033Z,4.77
2019-01-25T07:38:43.314Z,4.78
2019-01-25T07:39:46.676Z,4.78
2019-01-25T07:40:50.100Z,4.79
2019-01-25T07:41:59.175Z,4.64
2019-01-25T07:42:58.450Z,4.57
2019-01-25T07:44:01.737Z,4.55
2019-01-25T07:45:10.943Z,4.50
2019-01-25T07:46:14.284Z,4.42
2019-01-25T07:47:17.577Z,4.66
2019-01-25T07:48:20.898Z,4.79
2019-01-25T07:49:24.301Z,4.73
2019-01-25T07:50:27.749Z,4.75
2019-01-25T07:51:31.098Z,4.76
2019-01-25T07:52:34.440Z,4.77
2019-01-25T07:53:37.871Z,4.81
2019-01-25T07:54:41.160Z,4.77
2019-01-25T07:55:44.521Z,4.76
2019-01-25T07:56:47.814Z,4.94
2019-01-25T07:57:51.130Z,5.09
2019-01-25T07:58:54.488Z,5.11
2019-01-25T07:59:57.804Z,5.01
2019-01-25T08:01:01.115Z,4.89
2019-01-25T08:02:04.523Z,4.79
2019-01-25T08:03:07.842Z,4.81
2019-01-25T08:04:11.148Z,4.82
2019-01-25T08:05:14.507Z,4.79
2019-01-25T08:06:17.806Z,4.79
2019-01-25T08:07:21.097Z,4.70
2019-01-25T08:08:24.393Z,4.70
2019-01-25T08:09:28.040Z,4.76
2019-01-25T08:10:33.121Z,4.79
2019-01-25T08:11:36.601Z,4.86
2019-01-25T08:12:40.269Z,4.78
2019-01-25T08:13:43.559Z,4.75
2019-01-25T08:14:46.868Z,4.82
2019-01-25T08:15:50.322Z,4.90
2019-01-25T08:16:53.667Z,4.83
2019-01-25T08:17:56.939Z,4.77
2019-01-25T08:19:00.249Z,4.74
2019-01-25T08:20:04.916Z,4.86
2019-01-25T08:21:08.276Z,4.97
2019-01-25T08:22:11.825Z,5.03
2019-01-25T08:23:15.110Z,5.03
2019-01-25T08:24:18.444Z,5.02
2019-01-25T08:25:22.195Z,4.99
2019-01-25T08:26:25.477Z,4.91
2019-01-25T08:27:28.765Z,4.84
2019-01-25T08:28:32.073Z,4.93
2019-01-25T08:29:35.344Z,4.94
2019-01-25T08:30:38.737Z,4.97
2019-01-25T08:31:42.008Z,4.91
2019-01-25T08:32:45.310Z,4.86
2019-01-25T08:33:48.597Z,4.93
2019-01-25T08:34:51.883Z,4.97
2019-01-25T08:35:55.230Z,4.95
2019-01-25T08:36:58.495Z,4.96
2019-01-25T08:38:01.789Z,4.96
2019-01-25T08:39:07.672Z,4.93
2019-01-25T08:40:13.357Z,4.95
2019-01-25T08:41:16.782Z,5.04
2019-01-25T08:42:20.120Z,5.00
2019-01-25T08:43:23.426Z,5.00
2019-01-25T08:44:27.139Z,4.98
2019-01-25T08:45:30.773Z,5.03
2019-01-25T08:46:34.106Z,5.01
2019-01-25T08:47:37.461Z,5.11
2019-01-25T08:48:40.793Z,5.27
2019-01-25T08:49:44.510Z,5.32
2019-01-25T08:50:48.169Z,5.28
2019-01-25T08:51:51.487Z,5.28
2019-01-25T08:52:54.749Z,5.19
2019-01-25T08:53:58.081Z,5.13
2019-01-25T08:55:01.353Z,5.03
2019-01-25T08:56:04.817Z,5.01
2019-01-25T08:57:08.177Z,5.03
2019-01-25T08:58:14.150Z,5.05
2019-01-25T08:59:17.447Z,5.10
2019-01-25T09:00:26.256Z,5.23
2019-01-25T09:01:29.547Z,5.18
2019-01-25T09:02:32.867Z,5.10
2019-01-25T09:03:36.155Z,5.05
2019-01-25T09:04:39.434Z,5.08
2019-01-25T09:05:42.714Z,5.15
2019-01-25T09:06:45.992Z,5.16
2019-01-25T09:07:49.388Z,5.12
2019-01-25T09:08:52.669Z,5.15
2019-01-25T09:09:55.960Z,5.13
2019-01-25T09:10:59.380Z,5.09
2019-01-25T09:12:02.670Z,5.11
2019-01-25T09:13:06.009Z,5.10
2019-01-25T09:14:09.295Z,5.10
2019-01-25T09:15:22.673Z,5.19
2019-01-25T09:16:29.096Z,5.27
2019-01-25T09:17:32.452Z,5.38
2019-01-25T09:18:35.760Z,5.43
2019-01-25T09:19:39.089Z,5.40
2019-01-25T09:20:42.377Z,5.41
2019-01-25T09:21:45.668Z,5.48
2019-01-25T09:22:49.009Z,5.48
2019-01-25T09:23:52.336Z,5.46
2019-01-25T09:24:55.690Z,5.43
2019-01-25T09:26:01.015Z,5.36
2019-01-25T09:27:04.116Z,5.30
2019-01-25T09:28:07.424Z,5.26
2019-01-25T09:29:10.836Z,5.35
2019-01-25T09:30:16.699Z,5.39
2019-01-25T09:31:19.979Z,5.40
2019-01-25T09:32:23.281Z,5.39
2019-01-25T09:33:26.623Z,5.40
2019-01-25T09:34:29.976Z,5.42
2019-01-25T09:35:33.258Z,5.37
2019-01-25T09:36:36.541Z,5.35
2019-01-25T09:37:39.827Z,5.40
2019-01-25T09:38:43.110Z,5.35
2019-01-25T09:39:46.434Z,5.40
2019-01-25T09:40:49.721Z,5.39
2019-01-25T09:41:52.997Z,5.41
2019-01-25T09:42:56.286Z,5.38
2019-01-25T09:43:59.632Z,5.39
2019-01-25T09:45:03.029Z,5.35
2019-01-25T09:46:06.307Z,5.33
2019-01-25T09:47:09.663Z,5.31
2019-01-25T09:48:12.945Z,5.45
2019-01-25T09:49:16.234Z,5.47
2019-01-25T09:50:23.450Z,5.45
2019-01-25T09:51:26.745Z,5.45
2019-01-25T09:52:30.023Z,5.46
2019-01-25T09:53:33.303Z,5.40
2019-01-25T09:54:36.666Z,5.50
2019-01-25T09:55:39.975Z,5.55
2019-01-25T09:56:43.262Z,5.48
2019-01-25T09:57:46.610Z,5.47
2019-01-25T09:58:49.959Z,5.44
2019-01-25T09:59:53.248Z,5.47
2019-01-25T10:01:00.096Z,5.55
2019-01-25T10:02:03.383Z,5.55
2019-01-25T10:03:06.681Z,5.59
2019-01-25T10:04:09.972Z,5.61
2019-01-25T10:05:13.257Z,5.59
2019-01-25T10:06:16.625Z,5.58
2019-01-25T10:07:19.908Z,5.56
2019-01-25T10:08:23.210Z,5.47
2019-01-25T10:09:26.488Z,5.37
2019-01-25T10:10:29.789Z,5.36
2019-01-25T10:11:33.149Z,5.58
2019-01-25T10:12:43.259Z,5.59
2019-01-25T10:13:41.517Z,5.49
2019-01-25T10:14:44.828Z,5.43
2019-01-25T10:15:48.123Z,5.40
2019-01-25T10:16:51.412Z,5.40
2019-01-25T10:17:54.876Z,5.34
2019-01-25T10:18:58.164Z,5.38
2019-01-25T10:20:01.444Z,5.43
2019-01-25T10:21:04.796Z,5.43
2019-01-25T10:22:08.806Z,5.42
2019-01-25T10:23:12.173Z,5.49
2019-01-25T10:24:15.462Z,5.49
2019-01-25T10:25:19.113Z,5.54
2019-01-25T10:26:22.397Z,5.49
2019-01-25T10:27:25.838Z,5.39
2019-01-25T10:28:29.161Z,5.40
2019-01-25T10:29:32.513Z,5.36
2019-01-25T10:30:36.147Z,5.42
2019-01-25T10:31:39.513Z,5.47
2019-01-25T10:32:42.798Z,5.42
2019-01-25T10:33:46.111Z,5.43
2019-01-25T10:34:49.387Z,5.41
2019-01-25T10:35:52.670Z,5.43
2019-01-25T10:36:55.952Z,5.33
2019-01-25T10:37:59.542Z,5.36
2019-01-25T10:39:04.722Z,5.32
2019-01-25T10:40:13.611Z,5.33
2019-01-25T10:41:16.894Z,5.32
2019-01-25T10:42:20.175Z,5.34
2019-01-25T10:43:23.484Z,5.39
2019-01-25T10:44:26.804Z,5.45
2019-01-25T10:45:39.100Z,5.44
2019-01-25T10:46:42.453Z,5.43
2019-01-25T10:47:45.746Z,5.35
2019-01-25T10:48:49.024Z,5.37
2019-01-25T10:49:52.340Z,5.37
2019-01-25T10:50:55.626Z,5.34
2019-01-25T10:51:58.927Z,5.30
2019-01-25T10:53:02.210Z,5.26
2019-01-25T10:54:05.667Z,5.20
2019-01-25T10:55:11.054Z,5.23
2019-01-25T10:56:14.343Z,5.22
2019-01-25T10:57:17.630Z,5.25
2019-01-25T10:58:20.903Z,5.23
2019-01-25T10:59:24.265Z,5.18
2019-01-25T11:00:27.927Z,5.22
2019-01-25T11:01:31.220Z,5.18
2019-01-25T11:02:34.576Z,5.25
2019-01-25T11:03:37.875Z,5.28
2019-01-25T11:04:41.171Z,5.31
2019-01-25T11:05:44.513Z,5.24
2019-01-25T11:06:47.869Z,5.29
2019-01-25T11:07:51.171Z,5.27
2019-01-25T11:08:54.479Z,5.38
2019-01-25T11:09:57.813Z,5.39
2019-01-25T11:11:01.175Z,5.34
2019-01-25T11:12:04.474Z,5.26
2019-01-25T11:13:07.772Z,5.32
2019-01-25T11:14:11.061Z,5.38
2019-01-25T11:15:19.793Z,5.44
2019-01-25T11:16:23.125Z,5.45
2019-01-25T11:17:26.530Z,5.44
2019-01-25T11:18:29.895Z,5.44
2019-01-25T11:19:33.184Z,5.48
2019-01-25T11:20:36.485Z,5.56
2019-01-25T11:21:39.826Z,5.51
2019-01-25T11:22:43.705Z,5.52
2019-01-25T11:23:47.004Z,5.53
2019-01-25T11:24:50.360Z,5.50
2019-01-25T11:25:55.277Z,5.52
2019-01-25T11:27:00.413Z,5.51
2019-01-25T11:28:03.771Z,5.43
2019-01-25T11:29:07.057Z,5.40
2019-01-25T11:30:13.591Z,5.36
2019-01-25T11:31:16.940Z,5.33
2019-01-25T11:32:20.263Z,5.33
2019-01-25T11:33:23.548Z,5.38
2019-01-25T11:34:26.936Z,5.37
2019-01-25T11:35:30.219Z,5.33
2019-01-25T11:36:33.503Z,5.32
2019-01-25T11:37:36.808Z,5.31
2019-01-25T11:38:40.105Z,5.33
2019-01-25T11:39:43.453Z,5.38
2019-01-25T11:40:46.738Z,5.38
2019-01-25T11:41:50.017Z,5.27
2019-01-25T11:42:53.756Z,5.22
2019-01-25T11:43:57.168Z,5.20
2019-01-25T11:45:00.458Z,5.17
2019-01-25T11:46:03.843Z,5.18
2019-01-25T11:47:07.106Z,5.19
2019-01-25T11:48:12.423Z,5.21
2019-01-25T11:49:15.739Z,5.19
2019-01-25T11:50:20.566Z,5.13
2019-01-25T11:51:23.850Z,5.15
2019-01-25T11:52:27.144Z,5.15
2019-01-25T11:53:30.429Z,5.21
2019-01-25T11:54:33.739Z,5.20
2019-01-25T11:55:37.092Z,5.20
2019-01-25T11:56:40.380Z,5.21
2019-01-25T11:57:43.750Z,5.19
2019-01-25T11:58:47.104Z,5.17
2019-01-25T11:59:50.427Z,5.20
2019-01-25T12:00:54.202Z,5.15
2019-01-25T12:01:57.586Z,5.16
2019-01-25T12:03:00.827Z,5.16
2019-01-25T12:04:06.118Z,5.18
2019-01-25T12:05:11.985Z,5.22
2019-01-25T12:06:15.345Z,5.38
2019-01-25T12:07:18.704Z,5.39
2019-01-25T12:08:22.245Z,5.31
2019-01-25T12:09:25.600Z,5.29
2019-01-25T12:10:33.309Z,5.30
2019-01-25T12:11:36.595Z,5.25
2019-01-25T12:12:39.873Z,5.17
2019-01-25T12:13:43.239Z,5.19
2019-01-25T12:14:46.517Z,5.18
2019-01-25T12:15:51.431Z,5.15
2019-01-25T12:16:54.895Z,5.12
2019-01-25T12:17:58.248Z,5.12
2019-01-25T12:19:01.597Z,5.09
2019-01-25T12:20:08.164Z,5.19
2019-01-25T12:21:11.500Z,5.35
2019-01-25T12:22:14.787Z,5.40
2019-01-25T12:23:18.230Z,5.38
2019-01-25T12:24:21.864Z,5.34
2019-01-25T12:25:25.174Z,5.32
2019-01-25T12:26:28.841Z,5.24
2019-01-25T12:27:32.170Z,5.15
2019-01-25T12:28:35.458Z,5.11
2019-01-25T12:29:38.743Z,5.06
2019-01-25T12:30:42.027Z,5.06
2019-01-25T12:31:46.244Z,5.10
2019-01-25T12:32:49.543Z,5.11
2019-01-25T12:33:52.826Z,5.14
2019-01-25T12:34:56.446Z,5.18
2019-01-25T12:35:59.739Z,5.21
2019-01-25T12:37:04.786Z,5.18
2019-01-25T12:38:08.143Z,5.23
2019-01-25T12:39:11.432Z,5.32
2019-01-25T12:40:16.659Z,5.31
2019-01-25T12:41:19.938Z,5.24
2019-01-25T12:42:23.398Z,5.32
2019-01-25T12:43:26.743Z,5.36
2019-01-25T12:44:30.071Z,5.39
2019-01-25T12:45:33.362Z,5.47
2019-01-25T12:46:39.401Z,5.53
2019-01-25T12:47:43.114Z,5.61
2019-01-25T12:48:46.396Z,5.59
2019-01-25T12:49:49.710Z,5.62
2019-01-25T12:50:56.263Z,5.51
2019-01-25T12:51:59.629Z,5.45
2019-01-25T12:53:04.840Z,5.43
2019-01-25T12:54:08.134Z,5.43
2019-01-25T12:55:11.545Z,5.41
2019-01-25T12:56:14.822Z,5.33
2019-01-25T12:57:18.137Z,5.23
2019-01-25T12:58:21.413Z,5.20
2019-01-25T12:59:24.697Z,5.20
2019-01-25T13:00:29.658Z,5.15
2019-01-25T13:01:34.964Z,5.15
2019-01-25T13:02:38.139Z,5.11
2019-01-25T13:03:41.419Z,5.12
2019-01-25T13:04:44.815Z,5.24
2019-01-25T13:05:48.103Z,5.25
2019-01-25T13:06:51.397Z,5.26
2019-01-25T13:07:54.825Z,5.28
2019-01-25T13:08:58.179Z,5.31
2019-01-25T13:10:01.464Z,5.37
2019-01-25T13:11:05.114Z,5.43
2019-01-25T13:12:09.330Z,5.50
2019-01-25T13:13:12.608Z,5.57
2019-01-25T13:14:15.901Z,5.64
2019-01-25T13:15:19.179Z,5.61
2019-01-25T13:16:22.501Z,5.66
2019-01-25T13:17:25.884Z,5.63
2019-01-25T13:18:29.251Z,5.54
2019-01-25T13:19:32.537Z,5.47
2019-01-25T13:20:39.589Z,5.53
2019-01-25T13:21:41.123Z,5.48
2019-01-25T13:22:44.522Z,5.46
2019-01-25T13:23:47.809Z,5.44
2019-01-25T13:24:51.087Z,5.59
2019-01-25T13:25:54.475Z,5.76
2019-01-25T13:26:57.779Z,5.80
2019-01-25T13:28:03.628Z,5.73
2019-01-25T13:29:06.914Z,5.67
2019-01-25T13:30:21.867Z,5.80
2019-01-25T13:31:25.149Z,5.96
2019-01-25T13:32:28.468Z,5.98
2019-01-25T13:33:31.757Z,6.06
2019-01-25T13:34:35.050Z,5.95
2019-01-25T13:35:38.398Z,5.81
2019-01-25T13:36:41.849Z,5.70
2019-01-25T13:37:45.170Z,5.63
2019-01-25T13:38:48.457Z,5.63
2019-01-25T13:39:51.758Z,5.62
2019-01-25T13:40:55.045Z,5.63
2019-01-25T13:41:58.585Z,5.62
2019-01-25T13:43:02.332Z,5.57
2019-01-25T13:44:05.688Z,5.54
2019-01-25T13:45:12.278Z,5.56
2019-01-25T13:46:15.569Z,5.58
2019-01-25T13:47:18.888Z,5.61
2019-01-25T13:48:22.487Z,5.67
2019-01-25T13:49:25.794Z,5.64
2019-01-25T13:50:29.995Z,5.64
2019-01-25T13:51:33.361Z,5.62
2019-01-25T13:52:36.779Z,5.65
2019-01-25T13:53:40.094Z,5.65
2019-01-25T13:54:43.374Z,5.66
2019-01-25T13:55:46.666Z,5.73
2019-01-25T13:56:49.948Z,5.75
2019-01-25T13:57:53.241Z,5.72
2019-01-25T13:58:56.556Z,5.70
2019-01-25T13:59:59.837Z,5.72
2019-01-25T14:01:03.122Z,5.73
2019-01-25T14:03:27.369Z,5.80
2019-01-25T14:04:30.697Z,5.88
2019-01-25T14:05:34.061Z,5.99
2019-01-25T14:06:37.347Z,6.05
2019-01-25T14:07:40.643Z,6.01
2019-01-25T14:08:43.930Z,5.95
2019-01-25T14:09:47.244Z,5.92
2019-01-25T14:10:50.532Z,5.90
2019-01-25T14:11:53.828Z,5.87
2019-01-25T14:12:57.110Z,5.80
2019-01-25T14:14:00.405Z,5.72